createdAt,value
2019-03-28T00:03:27.091Z,9.00
2019-03-28T00:07:47.617Z,8.90
2019-03-28T00:12:06.617Z,8.90
2019-03-28T00:16:25.853Z,8.80
2019-03-28T00:20:45.092Z,8.80
2019-03-28T00:25:07.869Z,8.70
2019-03-28T00:29:28.390Z,8.70
2019-03-28T00:33:48.374Z,8.60
2019-03-28T00:38:08.227Z,8.50
2019-03-28T00:42:27.434Z,8.50
2019-03-28T00:46:47.403Z,8.50
2019-03-28T00:51:06.975Z,8.40
2019-03-28T00:55:27.090Z,8.50
2019-03-28T00:59:45.990Z,8.40
2019-03-28T01:04:05.825Z,8.30
2019-03-28T01:08:25.837Z,8.30
2019-03-28T01:12:46.039Z,8.20
2019-03-28T01:17:05.241Z,8.20
2019-03-28T01:21:24.321Z,8.10
2019-03-28T01:25:44.256Z,8.10
2019-03-28T01:30:03.281Z,8.10
2019-03-28T01:34:23.682Z,8.00
2019-03-28T01:38:42.904Z,8.00
2019-03-28T01:43:01.896Z,8.00
2019-03-28T01:47:21.428Z,7.90
2019-03-28T01:51:40.406Z,7.90
2019-03-28T01:55:59.423Z,7.80
2019-03-28T02:00:18.517Z,7.80
2019-03-28T02:04:37.573Z,7.80
2019-03-28T02:08:56.587Z,7.70
2019-03-28T02:13:15.614Z,7.70
2019-03-28T02:17:34.969Z,7.70
2019-03-28T02:21:54.841Z,7.60
2019-03-28T02:26:14.280Z,7.60
2019-03-28T02:30:35.244Z,7.50
2019-03-28T02:34:54.212Z,7.50
2019-03-28T02:39:13.260Z,7.50
2019-03-28T02:43:32.335Z,7.40
2019-03-28T02:47:51.701Z,7.40
2019-03-28T02:52:11.211Z,7.40
2019-03-28T02:56:30.690Z,7.50
2019-03-28T03:00:51.880Z,7.40
2019-03-28T03:05:11.720Z,7.40
2019-03-28T03:09:31.676Z,7.40
2019-03-28T03:13:51.007Z,7.40
2019-03-28T03:18:11.705Z,7.40
2019-03-28T03:22:32.273Z,7.30
2019-03-28T03:26:51.348Z,7.30
2019-03-28T03:31:10.507Z,7.20
2019-03-28T03:35:29.532Z,7.20
2019-03-28T03:39:48.549Z,7.10
2019-03-28T03:44:07.460Z,7.10
2019-03-28T03:48:28.528Z,7.10
2019-03-28T03:52:47.539Z,7.00
2019-03-28T03:57:06.479Z,7.00
2019-03-28T04:01:26.346Z,7.00
2019-03-28T04:05:46.743Z,6.90
2019-03-28T04:10:06.575Z,6.90
2019-03-28T04:14:25.714Z,6.90
2019-03-28T04:18:45.201Z,6.90
2019-03-28T04:23:04.707Z,6.90
2019-03-28T04:27:23.873Z,6.80
2019-03-28T04:31:42.832Z,6.80
2019-03-28T04:36:01.925Z,6.80
2019-03-28T04:40:20.797Z,6.70
2019-03-28T04:44:39.834Z,6.60
2019-03-28T04:48:58.842Z,6.60
2019-03-28T04:53:17.774Z,6.60
2019-03-28T04:57:40.925Z,6.60
2019-03-28T05:02:02.793Z,6.50
2019-03-28T05:06:19.704Z,6.50
2019-03-28T05:10:38.722Z,6.40
2019-03-28T05:14:57.811Z,6.40
2019-03-28T05:19:18.421Z,6.40
2019-03-28T05:23:38.962Z,6.40
2019-03-28T05:27:59.326Z,6.40
2019-03-28T05:32:18.896Z,6.40
2019-03-28T05:36:38.432Z,6.40
2019-03-28T05:40:57.434Z,6.40
2019-03-28T05:45:17.618Z,6.30
2019-03-28T05:49:36.816Z,6.40
2019-03-28T05:53:55.814Z,6.40
2019-03-28T05:58:14.880Z,6.40
2019-03-28T06:02:34.840Z,6.40
2019-03-28T06:06:54.835Z,6.50
2019-03-28T06:11:13.968Z,6.50
2019-03-28T06:15:33.059Z,6.50
2019-03-28T06:19:52.534Z,6.60
2019-03-28T06:24:11.494Z,6.70
2019-03-28T06:28:31.091Z,6.80
2019-03-28T06:32:51.546Z,6.90
2019-03-28T06:37:11.157Z,7.10
2019-03-28T06:41:30.330Z,7.20
2019-03-28T06:45:49.284Z,7.40
2019-03-28T06:50:10.015Z,7.70
2019-03-28T06:54:29.080Z,8.60
2019-03-28T06:58:48.193Z,9.70
2019-03-28T07:03:08.290Z,11.00
2019-03-28T07:07:28.861Z,12.20
2019-03-28T07:11:49.297Z,13.30
2019-03-28T07:16:09.458Z,14.30
2019-03-28T07:20:28.545Z,15.20
2019-03-28T07:24:48.333Z,16.00
2019-03-28T07:29:07.903Z,16.70
2019-03-28T07:33:27.168Z,17.40
2019-03-28T07:37:46.299Z,18.00
2019-03-28T07:42:06.442Z,18.80
2019-03-28T07:46:27.344Z,19.50
2019-03-28T07:50:48.274Z,20.30
2019-03-28T07:55:08.519Z,21.10
2019-03-28T07:59:29.247Z,21.90
2019-03-28T08:03:48.403Z,22.60
2019-03-28T08:08:08.301Z,23.20
2019-03-28T08:12:27.477Z,23.70
2019-03-28T08:16:46.911Z,24.10
2019-03-28T08:21:07.214Z,24.50
2019-03-28T08:25:27.834Z,24.80
2019-03-28T08:29:47.302Z,25.10
2019-03-28T08:34:06.550Z,25.50
2019-03-28T08:38:26.670Z,25.90
2019-03-28T08:42:46.174Z,26.30
2019-03-28T08:47:06.316Z,26.60
2019-03-28T08:51:27.343Z,26.90
2019-03-28T08:55:46.440Z,26.80
2019-03-28T09:00:06.290Z,26.70
2019-03-28T09:04:25.263Z,26.90
2019-03-28T09:08:44.431Z,27.00
2019-03-28T09:13:03.346Z,27.20
2019-03-28T09:17:24.013Z,27.30
2019-03-28T09:21:43.325Z,27.50
2019-03-28T09:26:04.394Z,27.60
2019-03-28T09:30:48.251Z,27.70
2019-03-28T09:35:00.982Z,27.80
2019-03-28T09:39:20.219Z,27.90
2019-03-28T09:43:39.203Z,28.00
2019-03-28T09:47:58.696Z,28.00
2019-03-28T09:52:17.634Z,27.90
2019-03-28T09:56:36.887Z,27.90
2019-03-28T10:01:02.839Z,28.00
2019-03-28T10:05:18.616Z,28.20
2019-03-28T10:09:37.511Z,28.30
2019-03-28T10:13:57.186Z,28.30
2019-03-28T10:18:16.166Z,28.40
2019-03-28T10:22:35.674Z,28.50
2019-03-28T10:26:54.860Z,28.50
2019-03-28T10:31:16.918Z,28.50
2019-03-28T10:35:37.808Z,28.40
2019-03-28T10:39:57.337Z,28.50
2019-03-28T10:44:16.234Z,28.40
2019-03-28T10:48:35.290Z,28.20
2019-03-28T10:52:55.794Z,28.00
2019-03-28T10:57:28.898Z,28.00
2019-03-28T11:01:48.200Z,28.10
2019-03-28T11:05:56.725Z,28.20
2019-03-28T11:10:17.523Z,28.40
2019-03-28T11:14:36.964Z,28.60
2019-03-28T11:18:55.985Z,28.50
2019-03-28T11:23:16.171Z,28.20
2019-03-28T11:27:35.858Z,28.20
2019-03-28T11:31:55.788Z,28.30
2019-03-28T11:36:14.841Z,28.30
2019-03-28T11:40:33.791Z,28.10
2019-03-28T11:44:53.392Z,27.90
2019-03-28T11:49:13.233Z,27.90
2019-03-28T11:53:32.279Z,28.00
2019-03-28T11:57:51.345Z,28.10
2019-03-28T12:02:19.673Z,28.10
2019-03-28T12:06:32.286Z,27.90
2019-03-28T12:10:51.359Z,27.60
2019-03-28T12:15:13.230Z,27.30
2019-03-28T12:19:33.191Z,27.10
2019-03-28T12:23:52.467Z,26.60
2019-03-28T12:28:11.710Z,26.00
2019-03-28T12:32:31.512Z,25.40
2019-03-28T12:36:50.792Z,24.80
2019-03-28T12:41:09.761Z,24.30
2019-03-28T12:45:28.694Z,23.80
2019-03-28T12:49:48.975Z,23.30
2019-03-28T12:54:07.997Z,22.90
2019-03-28T12:58:27.365Z,22.40
2019-03-28T13:02:50.955Z,22.20
2019-03-28T13:07:09.900Z,22.00
2019-03-28T13:11:28.977Z,21.80
2019-03-28T13:15:49.511Z,21.80
2019-03-28T13:20:10.434Z,21.80
2019-03-28T13:24:29.469Z,21.70
2019-03-28T13:28:48.739Z,21.60
2019-03-28T13:33:07.838Z,21.50
2019-03-28T13:37:27.023Z,21.40
2019-03-28T13:41:46.402Z,21.30
2019-03-28T13:46:06.584Z,21.20
2019-03-28T13:50:26.277Z,21.10
2019-03-28T13:54:45.376Z,21.00
2019-03-28T13:59:05.246Z,21.00
2019-03-28T14:03:24.846Z,21.00
2019-03-28T14:07:45.369Z,21.00
2019-03-28T14:12:04.523Z,21.00
2019-03-28T14:16:23.689Z,21.00
2019-03-28T14:20:42.766Z,21.00
2019-03-28T14:25:01.903Z,20.90
2019-03-28T14:29:21.245Z,20.80
2019-03-28T14:33:40.058Z,20.70
2019-03-28T14:37:59.396Z,20.50
2019-03-28T14:42:19.946Z,20.40
2019-03-28T14:46:39.203Z,20.40
2019-03-28T14:50:58.772Z,20.30
2019-03-28T14:55:17.695Z,20.30
2019-03-28T14:59:37.759Z,20.30
2019-03-28T15:03:56.972Z,20.20
2019-03-28T15:08:16.294Z,20.10
2019-03-28T15:12:37.312Z,20.00
2019-03-28T15:16:59.588Z,19.90
2019-03-28T15:21:19.149Z,19.70
2019-03-28T15:25:38.206Z,19.60
2019-03-28T15:29:57.918Z,19.40
2019-03-28T15:34:17.290Z,19.30
2019-03-28T15:38:36.363Z,19.20
2019-03-28T15:42:56.807Z,19.10
2019-03-28T15:47:15.750Z,19.00
2019-03-28T15:51:34.830Z,18.90
2019-03-28T15:55:54.157Z,18.80
2019-03-28T16:00:14.270Z,18.70
2019-03-28T16:04:33.247Z,18.60
2019-03-28T16:08:53.557Z,18.50
2019-03-28T16:13:12.702Z,18.40
2019-03-28T16:17:31.727Z,18.40
2019-03-28T16:21:51.126Z,18.30
2019-03-28T16:26:10.019Z,18.20
2019-03-28T16:30:41.442Z,18.20
2019-03-28T16:35:02.307Z,18.10
2019-03-28T16:39:23.270Z,18.00
2019-03-28T16:43:42.278Z,18.00
2019-03-28T16:48:01.795Z,17.90
2019-03-28T16:52:21.057Z,17.80
2019-03-28T16:56:47.361Z,17.70
2019-03-28T17:01:07.297Z,17.60
2019-03-28T17:05:26.351Z,17.50
2019-03-28T17:09:45.501Z,17.50
2019-03-28T17:14:04.498Z,17.40
2019-03-28T17:18:23.426Z,17.30
2019-03-28T17:22:42.499Z,17.20
2019-03-28T17:27:01.642Z,17.20
2019-03-28T17:31:22.311Z,17.10
2019-03-28T17:35:41.967Z,17.00
2019-03-28T17:40:01.410Z,16.90
2019-03-28T17:44:20.431Z,16.80
2019-03-28T17:48:39.436Z,16.70
2019-03-28T17:52:59.035Z,16.60
2019-03-28T17:57:21.164Z,16.50
2019-03-28T18:01:42.858Z,16.40
2019-03-28T18:06:02.885Z,16.30
2019-03-28T18:10:23.558Z,16.10
2019-03-28T18:14:42.752Z,16.00
2019-03-28T18:19:02.717Z,15.90
2019-03-28T18:23:23.682Z,15.70
2019-03-28T18:27:46.964Z,15.60
2019-03-28T18:32:06.805Z,15.50
2019-03-28T18:36:26.902Z,15.40
2019-03-28T18:40:46.829Z,15.30
2019-03-28T18:45:12.723Z,15.20
2019-03-28T18:49:32.316Z,15.20
2019-03-28T18:54:00.549Z,15.20
2019-03-28T18:58:21.085Z,15.20
2019-03-28T19:02:40.230Z,15.20
2019-03-28T19:06:59.329Z,15.20
2019-03-28T19:11:18.804Z,15.20
2019-03-28T19:15:37.972Z,15.30
2019-03-28T19:19:59.468Z,15.30
2019-03-28T19:24:19.102Z,15.30
2019-03-28T19:28:38.842Z,15.30
2019-03-28T19:32:57.926Z,15.30
2019-03-28T19:37:22.613Z,15.40
2019-03-28T19:41:42.035Z,15.40
2019-03-28T19:46:02.014Z,15.40
2019-03-28T19:50:29.957Z,15.40
2019-03-28T19:54:50.446Z,15.40
2019-03-28T19:59:11.071Z,15.40
2019-03-28T20:03:31.182Z,15.40
2019-03-28T20:07:51.367Z,15.40
2019-03-28T20:12:13.225Z,15.40
2019-03-28T20:16:33.710Z,15.40
2019-03-28T20:20:55.673Z,15.40
2019-03-28T20:25:14.961Z,15.40
2019-03-28T20:29:35.217Z,15.40
2019-03-28T20:33:56.217Z,15.40
2019-03-28T20:38:15.466Z,15.40
2019-03-28T20:42:35.166Z,15.40
2019-03-28T20:46:55.289Z,15.40
2019-03-28T20:51:15.721Z,15.30
2019-03-28T20:55:35.137Z,15.30
2019-03-28T20:59:54.591Z,15.30
2019-03-28T21:04:13.691Z,15.20
2019-03-28T21:08:32.958Z,15.20
2019-03-28T21:12:52.127Z,15.10
2019-03-28T21:17:11.658Z,15.10
2019-03-28T21:21:30.978Z,15.00
2019-03-28T21:25:50.641Z,14.90
2019-03-28T21:30:11.478Z,14.90
2019-03-28T21:34:31.132Z,14.80
2019-03-28T21:38:50.577Z,14.80
2019-03-28T21:43:11.011Z,14.80
2019-03-28T21:47:32.211Z,14.70
2019-03-28T21:51:51.385Z,14.70
2019-03-28T21:56:14.121Z,14.70
2019-03-28T22:00:31.895Z,14.70
2019-03-28T22:04:51.049Z,14.60
2019-03-28T22:09:11.105Z,14.60
2019-03-28T22:13:30.334Z,14.60
2019-03-28T22:17:49.275Z,14.60
2019-03-28T22:22:11.188Z,14.50
2019-03-28T22:26:30.156Z,14.50
2019-03-28T22:30:50.088Z,14.50
2019-03-28T22:35:11.009Z,14.40
2019-03-28T22:39:31.276Z,14.40
2019-03-28T22:43:50.788Z,14.40
2019-03-28T22:48:11.477Z,14.40
2019-03-28T22:52:31.081Z,14.40
2019-03-28T22:56:51.730Z,14.40
2019-03-28T23:01:11.581Z,14.40
2019-03-28T23:05:31.241Z,14.40
2019-03-28T23:09:50.647Z,14.30
2019-03-28T23:14:09.706Z,14.30
2019-03-28T23:18:29.412Z,14.30
2019-03-28T23:22:49.504Z,14.20
2019-03-28T23:27:08.543Z,14.20
2019-03-28T23:31:27.873Z,14.10
2019-03-28T23:35:46.931Z,14.10
2019-03-28T23:40:06.286Z,14.10
2019-03-28T23:44:25.222Z,14.00
2019-03-28T23:48:44.808Z,13.90
2019-03-28T23:53:04.022Z,13.80
2019-03-28T23:57:23.481Z,13.70
